sensor_id;sensor_type;location;lat;lon;timestamp;temperature;humidity
29031;DHT22;16122;50.236;11.734;2022-11-09T00:00:20;16.10;80.50
29031;DHT22;16122;50.236;11.734;2022-11-09T00:02:46;16.10;80.40
29031;DHT22;16122;50.236;11.734;2022-11-09T00:05:12;16.20;80.80
29031;DHT22;16122;50.236;11.734;2022-11-09T00:07:38;16.10;80.50
29031;DHT22;16122;50.236;11.734;2022-11-09T00:10:06;16.10;80.30
29031;DHT22;16122;50.236;11.734;2022-11-09T00:12:33;16.10;80.40
29031;DHT22;16122;50.236;11.734;2022-11-09T00:14:58;16.10;80.40
29031;DHT22;16122;50.236;11.734;2022-11-09T00:17:24;16.20;80.30
29031;DHT22;16122;50.236;11.734;2022-11-09T00:19:50;16.10;80.10
29031;DHT22;16122;50.236;11.734;2022-11-09T00:22:16;16.10;80.00
29031;DHT22;16122;50.236;11.734;2022-11-09T00:24:42;16.10;80.10
29031;DHT22;16122;50.236;11.734;2022-11-09T00:27:08;16.10;80.10
29031;DHT22;16122;50.236;11.734;2022-11-09T00:29:33;16.10;80.00
29031;DHT22;16122;50.236;11.734;2022-11-09T00:31:59;16.10;80.00
29031;DHT22;16122;50.236;11.734;2022-11-09T00:34:25;16.10;79.80
29031;DHT22;16122;50.236;11.734;2022-11-09T00:36:51;16.10;80.00
29031;DHT22;16122;50.236;11.734;2022-11-09T00:39:17;16.10;79.70
29031;DHT22;16122;50.236;11.734;2022-11-09T00:41:42;16.10;79.80
29031;DHT22;16122;50.236;11.734;2022-11-09T00:44:08;16.10;79.80
29031;DHT22;16122;50.236;11.734;2022-11-09T00:46:34;16.10;79.50
29031;DHT22;16122;50.236;11.734;2022-11-09T00:49:00;16.10;79.70
29031;DHT22;16122;50.236;11.734;2022-11-09T00:51:26;16.10;79.60
29031;DHT22;16122;50.236;11.734;2022-11-09T00:53:52;16.10;79.50
29031;DHT22;16122;50.236;11.734;2022-11-09T00:56:19;16.10;79.40
29031;DHT22;16122;50.236;11.734;2022-11-09T00:58:46;16.10;79.30
29031;DHT22;16122;50.236;11.734;2022-11-09T01:01:14;16.10;79.40
29031;DHT22;16122;50.236;11.734;2022-11-09T01:03:43;16.10;79.40
29031;DHT22;16122;50.236;11.734;2022-11-09T01:06:20;16.10;79.30
29031;DHT22;16122;50.236;11.734;2022-11-09T01:08:47;16.10;79.30
29031;DHT22;16122;50.236;11.734;2022-11-09T01:11:14;16.10;79.30
29031;DHT22;16122;50.236;11.734;2022-11-09T01:13:41;16.10;79.20
29031;DHT22;16122;50.236;11.734;2022-11-09T01:16:12;16.10;79.10
29031;DHT22;16122;50.236;11.734;2022-11-09T01:18:39;16.00;79.00
29031;DHT22;16122;50.236;11.734;2022-11-09T01:21:08;16.10;79.10
29031;DHT22;16122;50.236;11.734;2022-11-09T01:23:34;16.00;79.00
29031;DHT22;16122;50.236;11.734;2022-11-09T01:26:04;16.00;79.00
29031;DHT22;16122;50.236;11.734;2022-11-09T01:28:30;16.00;78.90
29031;DHT22;16122;50.236;11.734;2022-11-09T01:31:04;16.10;79.00
29031;DHT22;16122;50.236;11.734;2022-11-09T01:33:31;16.00;78.90
29031;DHT22;16122;50.236;11.734;2022-11-09T01:36:12;16.00;78.80
29031;DHT22;16122;50.236;11.734;2022-11-09T01:38:38;16.00;78.60
29031;DHT22;16122;50.236;11.734;2022-11-09T01:41:05;16.00;78.80
29031;DHT22;16122;50.236;11.734;2022-11-09T01:43:33;16.00;78.60
29031;DHT22;16122;50.236;11.734;2022-11-09T01:46:27;16.00;78.50
29031;DHT22;16122;50.236;11.734;2022-11-09T01:49:03;16.00;78.40
29031;DHT22;16122;50.236;11.734;2022-11-09T01:51:34;16.00;78.60
29031;DHT22;16122;50.236;11.734;2022-11-09T01:54:17;16.00;78.40
29031;DHT22;16122;50.236;11.734;2022-11-09T01:56:45;16.00;78.40
29031;DHT22;16122;50.236;11.734;2022-11-09T01:59:20;16.00;78.30
29031;DHT22;16122;50.236;11.734;2022-11-09T02:01:48;16.00;78.30
29031;DHT22;16122;50.236;11.734;2022-11-09T02:04:25;16.00;78.30
29031;DHT22;16122;50.236;11.734;2022-11-09T02:06:53;16.00;78.20
29031;DHT22;16122;50.236;11.734;2022-11-09T02:11:59;16.00;78.20
29031;DHT22;16122;50.236;11.734;2022-11-09T02:14:26;16.00;78.20
29031;DHT22;16122;50.236;11.734;2022-11-09T02:16:54;16.00;78.20
29031;DHT22;16122;50.236;11.734;2022-11-09T02:19:20;16.00;78.10
29031;DHT22;16122;50.236;11.734;2022-11-09T02:21:47;16.00;78.10
29031;DHT22;16122;50.236;11.734;2022-11-09T02:24:14;16.00;78.10
29031;DHT22;16122;50.236;11.734;2022-11-09T02:26:44;16.00;78.00
29031;DHT22;16122;50.236;11.734;2022-11-09T02:29:15;16.00;78.10
29031;DHT22;16122;50.236;11.734;2022-11-09T02:31:45;16.00;78.20
29031;DHT22;16122;50.236;11.734;2022-11-09T02:34:18;16.00;78.10
29031;DHT22;16122;50.236;11.734;2022-11-09T02:36:45;16.00;78.10
29031;DHT22;16122;50.236;11.734;2022-11-09T02:39:19;16.00;77.90
29031;DHT22;16122;50.236;11.734;2022-11-09T02:41:53;15.90;77.90
29031;DHT22;16122;50.236;11.734;2022-11-09T02:44:21;16.00;78.00
29031;DHT22;16122;50.236;11.734;2022-11-09T02:46:49;15.90;78.00
29031;DHT22;16122;50.236;11.734;2022-11-09T02:49:15;15.90;77.90
29031;DHT22;16122;50.236;11.734;2022-11-09T02:51:41;15.90;77.90
29031;DHT22;16122;50.236;11.734;2022-11-09T02:54:07;15.90;77.80
29031;DHT22;16122;50.236;11.734;2022-11-09T02:56:33;15.90;77.70
29031;DHT22;16122;50.236;11.734;2022-11-09T02:58:59;15.90;77.80
29031;DHT22;16122;50.236;11.734;2022-11-09T03:01:25;15.90;77.70
29031;DHT22;16122;50.236;11.734;2022-11-09T03:03:51;16.00;77.80
29031;DHT22;16122;50.236;11.734;2022-11-09T03:06:17;15.90;77.70
29031;DHT22;16122;50.236;11.734;2022-11-09T03:08:44;15.90;77.70
29031;DHT22;16122;50.236;11.734;2022-11-09T03:11:10;15.90;77.70
29031;DHT22;16122;50.236;11.734;2022-11-09T03:13:36;15.90;77.60
29031;DHT22;16122;50.236;11.734;2022-11-09T03:16:05;15.90;77.60
29031;DHT22;16122;50.236;11.734;2022-11-09T03:18:34;15.90;77.70
29031;DHT22;16122;50.236;11.734;2022-11-09T03:21:04;15.90;77.60
29031;DHT22;16122;50.236;11.734;2022-11-09T03:23:31;15.90;77.70
29031;DHT22;16122;50.236;11.734;2022-11-09T03:25:58;15.90;77.60
29031;DHT22;16122;50.236;11.734;2022-11-09T03:28:24;15.90;77.60
29031;DHT22;16122;50.236;11.734;2022-11-09T03:30:52;15.90;77.60
29031;DHT22;16122;50.236;11.734;2022-11-09T03:33:18;15.90;77.50
29031;DHT22;16122;50.236;11.734;2022-11-09T03:35:44;15.90;77.50
29031;DHT22;16122;50.236;11.734;2022-11-09T03:38:13;15.90;77.50
29031;DHT22;16122;50.236;11.734;2022-11-09T03:40:39;15.90;77.50
29031;DHT22;16122;50.236;11.734;2022-11-09T03:43:05;15.90;77.40
29031;DHT22;16122;50.236;11.734;2022-11-09T03:45:32;15.90;77.40
29031;DHT22;16122;50.236;11.734;2022-11-09T03:47:58;15.90;77.30
29031;DHT22;16122;50.236;11.734;2022-11-09T03:50:28;15.90;77.30
29031;DHT22;16122;50.236;11.734;2022-11-09T03:52:54;15.90;77.20
29031;DHT22;16122;50.236;11.734;2022-11-09T03:55:21;15.90;77.20
29031;DHT22;16122;50.236;11.734;2022-11-09T03:57:47;15.90;77.30
29031;DHT22;16122;50.236;11.734;2022-11-09T04:00:15;15.90;77.20
29031;DHT22;16122;50.236;11.734;2022-11-09T04:02:42;15.90;77.30
29031;DHT22;16122;50.236;11.734;2022-11-09T04:05:08;15.80;77.10
29031;DHT22;16122;50.236;11.734;2022-11-09T04:07:34;15.90;77.30
29031;DHT22;16122;50.236;11.734;2022-11-09T04:10:01;15.90;77.30
29031;DHT22;16122;50.236;11.734;2022-11-09T04:12:26;15.90;77.20
29031;DHT22;16122;50.236;11.734;2022-11-09T04:14:52;15.80;77.10
29031;DHT22;16122;50.236;11.734;2022-11-09T04:17:18;15.80;77.20
29031;DHT22;16122;50.236;11.734;2022-11-09T04:19:44;15.90;77.30
29031;DHT22;16122;50.236;11.734;2022-11-09T04:22:10;15.90;77.30
29031;DHT22;16122;50.236;11.734;2022-11-09T04:24:35;15.80;77.20
29031;DHT22;16122;50.236;11.734;2022-11-09T04:27:01;15.80;77.30
29031;DHT22;16122;50.236;11.734;2022-11-09T04:29:27;15.90;77.40
29031;DHT22;16122;50.236;11.734;2022-11-09T04:31:53;15.90;78.10
29031;DHT22;16122;50.236;11.734;2022-11-09T04:34:19;15.90;77.40
29031;DHT22;16122;50.236;11.734;2022-11-09T04:36:45;15.80;77.30
29031;DHT22;16122;50.236;11.734;2022-11-09T04:39:11;15.80;77.30
29031;DHT22;16122;50.236;11.734;2022-11-09T04:41:37;15.80;77.30
29031;DHT22;16122;50.236;11.734;2022-11-09T04:44:03;15.80;77.30
29031;DHT22;16122;50.236;11.734;2022-11-09T04:46:28;15.80;77.30
29031;DHT22;16122;50.236;11.734;2022-11-09T04:48:54;15.80;77.30
29031;DHT22;16122;50.236;11.734;2022-11-09T04:51:20;15.80;77.40
29031;DHT22;16122;50.236;11.734;2022-11-09T04:53:46;15.80;77.40
29031;DHT22;16122;50.236;11.734;2022-11-09T04:56:12;15.80;77.50
29031;DHT22;16122;50.236;11.734;2022-11-09T04:58:38;15.80;77.40
29031;DHT22;16122;50.236;11.734;2022-11-09T05:01:12;15.80;78.00
29031;DHT22;16122;50.236;11.734;2022-11-09T05:03:39;15.80;78.10
29031;DHT22;16122;50.236;11.734;2022-11-09T05:06:06;15.80;78.20
29031;DHT22;16122;50.236;11.734;2022-11-09T05:08:51;15.80;78.30
29031;DHT22;16122;50.236;11.734;2022-11-09T05:11:18;15.90;79.00
29031;DHT22;16122;50.236;11.734;2022-11-09T05:13:44;15.90;79.30
29031;DHT22;16122;50.236;11.734;2022-11-09T05:16:11;15.80;79.60
29031;DHT22;16122;50.236;11.734;2022-11-09T05:18:36;15.90;79.90
29031;DHT22;16122;50.236;11.734;2022-11-09T05:21:03;15.90;80.10
29031;DHT22;16122;50.236;11.734;2022-11-09T05:23:29;15.90;80.40
29031;DHT22;16122;50.236;11.734;2022-11-09T05:26:13;15.90;80.50
29031;DHT22;16122;50.236;11.734;2022-11-09T05:28:39;15.90;80.70
29031;DHT22;16122;50.236;11.734;2022-11-09T05:31:05;15.80;80.40
29031;DHT22;16122;50.236;11.734;2022-11-09T05:33:31;15.90;79.90
29031;DHT22;16122;50.236;11.734;2022-11-09T05:35:57;15.90;79.70
29031;DHT22;16122;50.236;11.734;2022-11-09T05:38:24;15.80;79.60
29031;DHT22;16122;50.236;11.734;2022-11-09T05:40:51;15.80;79.60
29031;DHT22;16122;50.236;11.734;2022-11-09T05:43:17;15.90;79.60
29031;DHT22;16122;50.236;11.734;2022-11-09T05:45:43;15.80;79.40
29031;DHT22;16122;50.236;11.734;2022-11-09T05:48:11;15.80;79.40
29031;DHT22;16122;50.236;11.734;2022-11-09T05:50:38;15.80;79.30
29031;DHT22;16122;50.236;11.734;2022-11-09T05:53:25;15.80;79.20
29031;DHT22;16122;50.236;11.734;2022-11-09T05:55:51;15.80;79.30
29031;DHT22;16122;50.236;11.734;2022-11-09T05:58:17;15.80;79.10
29031;DHT22;16122;50.236;11.734;2022-11-09T06:00:42;15.80;79.10
29031;DHT22;16122;50.236;11.734;2022-11-09T06:03:09;15.80;79.10
29031;DHT22;16122;50.236;11.734;2022-11-09T06:05:38;15.80;79.10
29031;DHT22;16122;50.236;11.734;2022-11-09T06:08:11;15.80;79.00
29031;DHT22;16122;50.236;11.734;2022-11-09T06:10:39;15.80;79.00
29031;DHT22;16122;50.236;11.734;2022-11-09T06:13:05;15.80;79.00
29031;DHT22;16122;50.236;11.734;2022-11-09T06:15:31;15.80;78.90
29031;DHT22;16122;50.236;11.734;2022-11-09T06:17:57;15.80;78.80
29031;DHT22;16122;50.236;11.734;2022-11-09T06:20:26;15.80;78.90
29031;DHT22;16122;50.236;11.734;2022-11-09T06:22:59;15.80;78.90
29031;DHT22;16122;50.236;11.734;2022-11-09T06:25:26;15.70;78.60
29031;DHT22;16122;50.236;11.734;2022-11-09T06:27:53;15.80;78.80
29031;DHT22;16122;50.236;11.734;2022-11-09T06:30:20;15.80;78.70
29031;DHT22;16122;50.236;11.734;2022-11-09T06:32:46;15.80;78.60
29031;DHT22;16122;50.236;11.734;2022-11-09T06:35:13;15.70;78.40
29031;DHT22;16122;50.236;11.734;2022-11-09T06:37:39;15.80;78.70
29031;DHT22;16122;50.236;11.734;2022-11-09T06:40:05;15.70;78.50
29031;DHT22;16122;50.236;11.734;2022-11-09T06:42:31;15.70;78.60
29031;DHT22;16122;50.236;11.734;2022-11-09T06:44:57;15.70;79.00
29031;DHT22;16122;50.236;11.734;2022-11-09T06:47:22;15.70;79.00
29031;DHT22;16122;50.236;11.734;2022-11-09T06:49:48;15.70;78.70
29031;DHT22;16122;50.236;11.734;2022-11-09T06:52:14;15.70;78.60
29031;DHT22;16122;50.236;11.734;2022-11-09T06:54:40;15.70;78.50
29031;DHT22;16122;50.236;11.734;2022-11-09T06:57:06;15.70;78.50
29031;DHT22;16122;50.236;11.734;2022-11-09T06:59:31;15.70;78.50
29031;DHT22;16122;50.236;11.734;2022-11-09T07:01:59;15.70;78.50
29031;DHT22;16122;50.236;11.734;2022-11-09T07:04:25;15.70;78.40
29031;DHT22;16122;50.236;11.734;2022-11-09T07:06:51;15.70;78.40
29031;DHT22;16122;50.236;11.734;2022-11-09T07:09:17;15.70;78.40
29031;DHT22;16122;50.236;11.734;2022-11-09T07:11:43;15.70;78.40
29031;DHT22;16122;50.236;11.734;2022-11-09T07:14:09;15.70;78.40
29031;DHT22;16122;50.236;11.734;2022-11-09T07:16:34;15.70;78.30
29031;DHT22;16122;50.236;11.734;2022-11-09T07:19:02;15.70;78.50
29031;DHT22;16122;50.236;11.734;2022-11-09T07:21:27;15.70;78.40
29031;DHT22;16122;50.236;11.734;2022-11-09T07:23:53;15.70;78.30
29031;DHT22;16122;50.236;11.734;2022-11-09T07:26:19;15.70;78.40
29031;DHT22;16122;50.236;11.734;2022-11-09T07:28:45;15.70;78.40
29031;DHT22;16122;50.236;11.734;2022-11-09T07:31:10;15.70;78.40
29031;DHT22;16122;50.236;11.734;2022-11-09T07:33:36;15.70;78.30
29031;DHT22;16122;50.236;11.734;2022-11-09T07:36:03;15.70;78.30
29031;DHT22;16122;50.236;11.734;2022-11-09T07:38:30;15.70;78.30
29031;DHT22;16122;50.236;11.734;2022-11-09T07:41:00;15.60;78.20
29031;DHT22;16122;50.236;11.734;2022-11-09T07:43:26;15.70;78.30
29031;DHT22;16122;50.236;11.734;2022-11-09T07:45:54;15.60;78.20
29031;DHT22;16122;50.236;11.734;2022-11-09T07:48:20;15.70;78.30
29031;DHT22;16122;50.236;11.734;2022-11-09T07:50:46;15.70;78.30
29031;DHT22;16122;50.236;11.734;2022-11-09T07:53:13;15.60;78.10
29031;DHT22;16122;50.236;11.734;2022-11-09T07:55:40;15.70;78.30
29031;DHT22;16122;50.236;11.734;2022-11-09T07:58:09;15.60;78.20
29031;DHT22;16122;50.236;11.734;2022-11-09T08:00:36;15.60;78.30
29031;DHT22;16122;50.236;11.734;2022-11-09T08:03:03;15.60;78.20
29031;DHT22;16122;50.236;11.734;2022-11-09T08:05:29;15.60;78.30
29031;DHT22;16122;50.236;11.734;2022-11-09T08:07:59;15.70;78.30
29031;DHT22;16122;50.236;11.734;2022-11-09T08:10:27;15.60;78.20
29031;DHT22;16122;50.236;11.734;2022-11-09T08:13:01;15.60;78.20
29031;DHT22;16122;50.236;11.734;2022-11-09T08:15:28;15.60;78.20
29031;DHT22;16122;50.236;11.734;2022-11-09T08:17:58;15.60;78.30
29031;DHT22;16122;50.236;11.734;2022-11-09T08:20:24;15.60;78.20
29031;DHT22;16122;50.236;11.734;2022-11-09T08:22:50;15.60;78.30
29031;DHT22;16122;50.236;11.734;2022-11-09T08:25:16;15.60;78.20
29031;DHT22;16122;50.236;11.734;2022-11-09T08:27:42;15.60;78.20
29031;DHT22;16122;50.236;11.734;2022-11-09T08:30:13;15.60;78.20
29031;DHT22;16122;50.236;11.734;2022-11-09T08:32:41;15.60;78.20
29031;DHT22;16122;50.236;11.734;2022-11-09T08:35:08;15.60;78.30
29031;DHT22;16122;50.236;11.734;2022-11-09T08:37:38;15.60;78.20
29031;DHT22;16122;50.236;11.734;2022-11-09T08:40:05;15.60;78.20
29031;DHT22;16122;50.236;11.734;2022-11-09T08:42:32;15.60;78.20
29031;DHT22;16122;50.236;11.734;2022-11-09T08:44:57;15.60;78.20
29031;DHT22;16122;50.236;11.734;2022-11-09T08:47:23;15.60;78.20
29031;DHT22;16122;50.236;11.734;2022-11-09T08:49:49;15.60;78.20
29031;DHT22;16122;50.236;11.734;2022-11-09T08:52:16;15.60;78.30
29031;DHT22;16122;50.236;11.734;2022-11-09T08:54:42;15.60;78.20
29031;DHT22;16122;50.236;11.734;2022-11-09T08:57:08;15.60;78.20
29031;DHT22;16122;50.236;11.734;2022-11-09T08:59:34;15.60;78.30
29031;DHT22;16122;50.236;11.734;2022-11-09T09:02:00;15.60;78.30
29031;DHT22;16122;50.236;11.734;2022-11-09T09:04:26;15.60;78.30
29031;DHT22;16122;50.236;11.734;2022-11-09T09:06:52;15.60;78.30
29031;DHT22;16122;50.236;11.734;2022-11-09T09:09:18;15.60;78.30
29031;DHT22;16122;50.236;11.734;2022-11-09T09:11:44;15.60;78.20
29031;DHT22;16122;50.236;11.734;2022-11-09T09:14:10;15.60;78.50
29031;DHT22;16122;50.236;11.734;2022-11-09T09:16:36;15.60;78.30
29031;DHT22;16122;50.236;11.734;2022-11-09T09:19:02;15.60;78.20
29031;DHT22;16122;50.236;11.734;2022-11-09T09:21:28;15.60;78.20
29031;DHT22;16122;50.236;11.734;2022-11-09T09:23:54;15.60;78.20
29031;DHT22;16122;50.236;11.734;2022-11-09T09:26:20;15.60;78.40
29031;DHT22;16122;50.236;11.734;2022-11-09T09:28:46;15.60;78.30
29031;DHT22;16122;50.236;11.734;2022-11-09T09:31:12;15.60;78.30
29031;DHT22;16122;50.236;11.734;2022-11-09T09:33:38;15.60;78.20
29031;DHT22;16122;50.236;11.734;2022-11-09T09:36:04;15.60;78.20
29031;DHT22;16122;50.236;11.734;2022-11-09T09:38:30;15.60;79.00
29031;DHT22;16122;50.236;11.734;2022-11-09T09:40:58;15.60;78.30
29031;DHT22;16122;50.236;11.734;2022-11-09T09:43:40;15.60;78.20
29031;DHT22;16122;50.236;11.734;2022-11-09T09:46:59;15.60;78.30
29031;DHT22;16122;50.236;11.734;2022-11-09T09:50:02;15.60;78.20
29031;DHT22;16122;50.236;11.734;2022-11-09T09:55:06;15.60;78.20
29031;DHT22;16122;50.236;11.734;2022-11-09T09:57:35;15.60;78.20
29031;DHT22;16122;50.236;11.734;2022-11-09T10:00:04;15.60;78.20
29031;DHT22;16122;50.236;11.734;2022-11-09T10:02:37;15.60;78.30
29031;DHT22;16122;50.236;11.734;2022-11-09T10:05:08;15.50;78.10
29031;DHT22;16122;50.236;11.734;2022-11-09T10:08:04;15.60;78.20
29031;DHT22;16122;50.236;11.734;2022-11-09T10:13:41;15.60;78.30
29031;DHT22;16122;50.236;11.734;2022-11-09T10:16:29;15.60;78.50
29031;DHT22;16122;50.236;11.734;2022-11-09T10:22:30;15.50;79.10
29031;DHT22;16122;50.236;11.734;2022-11-09T10:25:05;15.60;81.70
29031;DHT22;16122;50.236;11.734;2022-11-09T10:27:36;15.60;82.50
29031;DHT22;16122;50.236;11.734;2022-11-09T10:30:13;15.60;82.20
29031;DHT22;16122;50.236;11.734;2022-11-09T10:32:41;15.60;82.70
29031;DHT22;16122;50.236;11.734;2022-11-09T10:35:21;15.60;83.10
29031;DHT22;16122;50.236;11.734;2022-11-09T10:37:50;15.60;83.70
29031;DHT22;16122;50.236;11.734;2022-11-09T10:43:12;15.60;84.70
29031;DHT22;16122;50.236;11.734;2022-11-09T10:46:06;15.60;85.20
29031;DHT22;16122;50.236;11.734;2022-11-09T10:48:52;15.60;85.90
29031;DHT22;16122;50.236;11.734;2022-11-09T10:51:38;15.60;86.10
29031;DHT22;16122;50.236;11.734;2022-11-09T10:57:15;15.60;85.90
29031;DHT22;16122;50.236;11.734;2022-11-09T11:00:00;15.60;85.50
29031;DHT22;16122;50.236;11.734;2022-11-09T11:02:46;15.60;86.40
29031;DHT22;16122;50.236;11.734;2022-11-09T11:05:31;15.60;85.60
29031;DHT22;16122;50.236;11.734;2022-11-09T11:11:19;15.60;86.30
29031;DHT22;16122;50.236;11.734;2022-11-09T11:17:20;15.60;88.40
29031;DHT22;16122;50.236;11.734;2022-11-09T11:32:00;15.70;88.50
29031;DHT22;16122;50.236;11.734;2022-11-09T11:34:46;15.70;88.30
29031;DHT22;16122;50.236;11.734;2022-11-09T11:47:00;15.70;88.50
29031;DHT22;16122;50.236;11.734;2022-11-09T11:49:59;15.70;88.10
29031;DHT22;16122;50.236;11.734;2022-11-09T11:53:06;15.70;87.80
29031;DHT22;16122;50.236;11.734;2022-11-09T11:56:12;15.70;87.50
29031;DHT22;16122;50.236;11.734;2022-11-09T12:17:48;15.70;85.80
29031;DHT22;16122;50.236;11.734;2022-11-09T12:29:59;15.70;85.10
29031;DHT22;16122;50.236;11.734;2022-11-09T12:32:55;15.70;85.00
29031;DHT22;16122;50.236;11.734;2022-11-09T12:35:54;15.70;84.90
29031;DHT22;16122;50.236;11.734;2022-11-09T12:41:45;15.60;84.60
29031;DHT22;16122;50.236;11.734;2022-11-09T12:44:34;15.70;84.60
29031;DHT22;16122;50.236;11.734;2022-11-09T12:47:26;15.60;84.50
29031;DHT22;16122;50.236;11.734;2022-11-09T12:50:17;15.70;84.50
29031;DHT22;16122;50.236;11.734;2022-11-09T12:53:03;15.60;84.20
29031;DHT22;16122;50.236;11.734;2022-11-09T12:56:09;15.70;84.20
29031;DHT22;16122;50.236;11.734;2022-11-09T12:59:21;15.70;84.30
29031;DHT22;16122;50.236;11.734;2022-11-09T13:02:27;15.60;84.20
29031;DHT22;16122;50.236;11.734;2022-11-09T13:05:34;15.60;84.00
29031;DHT22;16122;50.236;11.734;2022-11-09T13:08:28;15.60;84.10
29031;DHT22;16122;50.236;11.734;2022-11-09T13:11:19;15.60;83.90
29031;DHT22;16122;50.236;11.734;2022-11-09T13:23:30;15.60;83.60
29031;DHT22;16122;50.236;11.734;2022-11-09T13:34:51;15.70;83.50
29031;DHT22;16122;50.236;11.734;2022-11-09T13:43:34;15.60;83.30
29031;DHT22;16122;50.236;11.734;2022-11-09T13:46:28;15.70;83.40
29031;DHT22;16122;50.236;11.734;2022-11-09T13:52:56;15.70;83.30
29031;DHT22;16122;50.236;11.734;2022-11-09T13:55:41;15.60;83.20
29031;DHT22;16122;50.236;11.734;2022-11-09T13:58:35;15.70;83.30
29031;DHT22;16122;50.236;11.734;2022-11-09T14:01:54;15.60;83.40
29031;DHT22;16122;50.236;11.734;2022-11-09T14:04:42;15.60;83.60
29031;DHT22;16122;50.236;11.734;2022-11-09T14:07:29;15.70;83.90
29031;DHT22;16122;50.236;11.734;2022-11-09T14:10:27;15.60;83.70
29031;DHT22;16122;50.236;11.734;2022-11-09T14:19:46;15.70;84.60
29031;DHT22;16122;50.236;11.734;2022-11-09T14:22:34;15.70;84.70
29031;DHT22;16122;50.236;11.734;2022-11-09T14:25:21;15.60;84.50
29031;DHT22;16122;50.236;11.734;2022-11-09T14:28:28;15.60;84.10
29031;DHT22;16122;50.236;11.734;2022-11-09T14:31:26;15.60;84.00
29031;DHT22;16122;50.236;11.734;2022-11-09T14:34:14;15.70;83.90
29031;DHT22;16122;50.236;11.734;2022-11-09T14:36:59;15.60;83.90
29031;DHT22;16122;50.236;11.734;2022-11-09T14:39:48;15.60;83.80
29031;DHT22;16122;50.236;11.734;2022-11-09T14:42:33;15.60;83.80
29031;DHT22;16122;50.236;11.734;2022-11-09T14:45:18;15.60;83.70
29031;DHT22;16122;50.236;11.734;2022-11-09T14:48:03;15.60;83.70
29031;DHT22;16122;50.236;11.734;2022-11-09T14:50:50;15.60;83.70
29031;DHT22;16122;50.236;11.734;2022-11-09T14:53:36;15.60;83.70
29031;DHT22;16122;50.236;11.734;2022-11-09T14:56:22;15.60;83.70
29031;DHT22;16122;50.236;11.734;2022-11-09T14:59:11;15.60;83.60
29031;DHT22;16122;50.236;11.734;2022-11-09T15:04:56;15.60;83.50
29031;DHT22;16122;50.236;11.734;2022-11-09T15:07:44;15.60;83.50
29031;DHT22;16122;50.236;11.734;2022-11-09T15:10:30;15.60;83.50
29031;DHT22;16122;50.236;11.734;2022-11-09T15:13:16;15.60;83.40
29031;DHT22;16122;50.236;11.734;2022-11-09T15:16:02;15.60;83.40
29031;DHT22;16122;50.236;11.734;2022-11-09T15:18:47;15.60;83.30
29031;DHT22;16122;50.236;11.734;2022-11-09T15:21:35;15.60;83.30
29031;DHT22;16122;50.236;11.734;2022-11-09T15:24:22;15.60;83.30
29031;DHT22;16122;50.236;11.734;2022-11-09T15:27:28;15.60;83.20
29031;DHT22;16122;50.236;11.734;2022-11-09T15:30:47;15.60;83.20
29031;DHT22;16122;50.236;11.734;2022-11-09T15:33:47;15.60;83.20
29031;DHT22;16122;50.236;11.734;2022-11-09T15:36:34;15.60;83.20
29031;DHT22;16122;50.236;11.734;2022-11-09T15:39:20;15.50;83.00
29031;DHT22;16122;50.236;11.734;2022-11-09T15:42:07;15.60;83.00
29031;DHT22;16122;50.236;11.734;2022-11-09T15:44:54;15.60;83.10
29031;DHT22;16122;50.236;11.734;2022-11-09T15:47:39;15.50;82.90
29031;DHT22;16122;50.236;11.734;2022-11-09T15:50:26;15.50;82.90
29031;DHT22;16122;50.236;11.734;2022-11-09T15:53:11;15.60;83.00
29031;DHT22;16122;50.236;11.734;2022-11-09T15:55:56;15.50;82.90
29031;DHT22;16122;50.236;11.734;2022-11-09T15:58:41;15.50;82.80
29031;DHT22;16122;50.236;11.734;2022-11-09T16:01:25;15.50;82.80
29031;DHT22;16122;50.236;11.734;2022-11-09T16:04:10;15.50;82.80
29031;DHT22;16122;50.236;11.734;2022-11-09T16:06:55;15.50;82.80
29031;DHT22;16122;50.236;11.734;2022-11-09T16:09:40;15.50;82.80
29031;DHT22;16122;50.236;11.734;2022-11-09T16:12:25;15.50;82.70
29031;DHT22;16122;50.236;11.734;2022-11-09T16:15:10;15.50;82.70
29031;DHT22;16122;50.236;11.734;2022-11-09T16:17:54;15.50;82.60
29031;DHT22;16122;50.236;11.734;2022-11-09T16:20:38;15.50;82.70
29031;DHT22;16122;50.236;11.734;2022-11-09T16:23:24;15.50;82.70
29031;DHT22;16122;50.236;11.734;2022-11-09T16:26:11;15.50;82.60
29031;DHT22;16122;50.236;11.734;2022-11-09T16:28:55;15.50;83.00
29031;DHT22;16122;50.236;11.734;2022-11-09T16:31:40;15.50;83.60
29031;DHT22;16122;50.236;11.734;2022-11-09T16:34:24;15.50;83.60
29031;DHT22;16122;50.236;11.734;2022-11-09T16:37:08;15.50;83.70
29031;DHT22;16122;50.236;11.734;2022-11-09T16:39:52;15.50;84.00
29031;DHT22;16122;50.236;11.734;2022-11-09T16:42:37;15.50;84.00
29031;DHT22;16122;50.236;11.734;2022-11-09T16:45:21;15.50;84.00
29031;DHT22;16122;50.236;11.734;2022-11-09T16:48:10;15.50;84.10
29031;DHT22;16122;50.236;11.734;2022-11-09T16:50:55;15.50;84.00
29031;DHT22;16122;50.236;11.734;2022-11-09T16:53:39;15.50;84.20
29031;DHT22;16122;50.236;11.734;2022-11-09T16:56:24;15.50;84.30
29031;DHT22;16122;50.236;11.734;2022-11-09T16:59:09;15.50;84.20
29031;DHT22;16122;50.236;11.734;2022-11-09T17:01:56;15.50;84.30
29031;DHT22;16122;50.236;11.734;2022-11-09T17:04:40;15.50;84.30
29031;DHT22;16122;50.236;11.734;2022-11-09T17:07:26;15.50;84.40
29031;DHT22;16122;50.236;11.734;2022-11-09T17:10:10;15.50;84.30
29031;DHT22;16122;50.236;11.734;2022-11-09T17:12:55;15.50;84.30
29031;DHT22;16122;50.236;11.734;2022-11-09T17:15:41;15.50;84.50
29031;DHT22;16122;50.236;11.734;2022-11-09T17:18:26;15.50;84.50
29031;DHT22;16122;50.236;11.734;2022-11-09T17:21:11;15.50;84.60
29031;DHT22;16122;50.236;11.734;2022-11-09T17:23:58;15.50;84.70
29031;DHT22;16122;50.236;11.734;2022-11-09T17:26:42;15.50;84.90
29031;DHT22;16122;50.236;11.734;2022-11-09T17:29:27;15.50;85.10
29031;DHT22;16122;50.236;11.734;2022-11-09T17:32:12;15.50;85.00
29031;DHT22;16122;50.236;11.734;2022-11-09T17:34:56;15.50;85.20
29031;DHT22;16122;50.236;11.734;2022-11-09T17:37:40;15.50;85.30
29031;DHT22;16122;50.236;11.734;2022-11-09T17:40:25;15.50;85.20
29031;DHT22;16122;50.236;11.734;2022-11-09T17:43:09;15.50;85.30
29031;DHT22;16122;50.236;11.734;2022-11-09T17:45:54;15.50;85.50
29031;DHT22;16122;50.236;11.734;2022-11-09T17:48:39;15.50;85.40
29031;DHT22;16122;50.236;11.734;2022-11-09T17:51:24;15.60;85.70
29031;DHT22;16122;50.236;11.734;2022-11-09T17:54:09;15.50;85.50